sensor_id;sensor_type;location;lat;lon;timestamp;temperature;humidity
16118;DHT22;8163;50.118;5.342;2023-04-01T00:01:42;7.70;99.90
16118;DHT22;8163;50.118;5.342;2023-04-01T00:04:09;7.70;99.90
16118;DHT22;8163;50.118;5.342;2023-04-01T00:06:36;7.70;99.90
16118;DHT22;8163;50.118;5.342;2023-04-01T00:09:03;7.70;99.90
16118;DHT22;8163;50.118;5.342;2023-04-01T00:11:30;7.60;99.90
16118;DHT22;8163;50.118;5.342;2023-04-01T00:13:58;7.60;99.90
16118;DHT22;8163;50.118;5.342;2023-04-01T00:16:25;7.60;99.90
16118;DHT22;8163;50.118;5.342;2023-04-01T00:18:52;7.60;99.90
16118;DHT22;8163;50.118;5.342;2023-04-01T00:21:20;7.60;99.90
16118;DHT22;8163;50.118;5.342;2023-04-01T00:23:47;7.60;99.90
16118;DHT22;8163;50.118;5.342;2023-04-01T00:26:15;7.60;99.90
16118;DHT22;8163;50.118;5.342;2023-04-01T00:28:47;7.60;99.90
16118;DHT22;8163;50.118;5.342;2023-04-01T00:31:15;7.50;99.90
16118;DHT22;8163;50.118;5.342;2023-04-01T00:33:42;7.60;99.90
16118;DHT22;8163;50.118;5.342;2023-04-01T00:36:10;7.50;99.90
16118;DHT22;8163;50.118;5.342;2023-04-01T00:38:38;7.50;99.90
16118;DHT22;8163;50.118;5.342;2023-04-01T00:41:06;7.50;99.90
16118;DHT22;8163;50.118;5.342;2023-04-01T00:43:33;7.50;99.90
16118;DHT22;8163;50.118;5.342;2023-04-01T00:46:00;7.50;99.90
16118;DHT22;8163;50.118;5.342;2023-04-01T00:48:33;7.50;99.90
16118;DHT22;8163;50.118;5.342;2023-04-01T00:51:05;7.50;99.90
16118;DHT22;8163;50.118;5.342;2023-04-01T00:53:36;7.50;99.90
16118;DHT22;8163;50.118;5.342;2023-04-01T00:56:10;7.50;99.90
16118;DHT22;8163;50.118;5.342;2023-04-01T00:58:40;7.50;99.90
16118;DHT22;8163;50.118;5.342;2023-04-01T01:01:10;7.50;99.90
16118;DHT22;8163;50.118;5.342;2023-04-01T01:03:39;7.50;99.90
16118;DHT22;8163;50.118;5.342;2023-04-01T01:06:16;7.50;99.90
16118;DHT22;8163;50.118;5.342;2023-04-01T01:09:06;7.50;99.90
16118;DHT22;8163;50.118;5.342;2023-04-01T01:11:40;7.50;99.90
16118;DHT22;8163;50.118;5.342;2023-04-01T01:14:14;7.50;99.90
16118;DHT22;8163;50.118;5.342;2023-04-01T01:16:51;7.50;99.90
16118;DHT22;8163;50.118;5.342;2023-04-01T01:19:36;7.40;99.90
16118;DHT22;8163;50.118;5.342;2023-04-01T01:22:33;7.40;99.90
16118;DHT22;8163;50.118;5.342;2023-04-01T01:25:16;7.40;99.90
16118;DHT22;8163;50.118;5.342;2023-04-01T01:27:54;7.40;99.90
16118;DHT22;8163;50.118;5.342;2023-04-01T01:30:34;7.40;99.90
16118;DHT22;8163;50.118;5.342;2023-04-01T01:33:35;7.40;99.90
16118;DHT22;8163;50.118;5.342;2023-04-01T01:36:09;7.40;99.90
16118;DHT22;8163;50.118;5.342;2023-04-01T01:38:40;7.40;99.90
16118;DHT22;8163;50.118;5.342;2023-04-01T01:41:09;7.30;99.90
16118;DHT22;8163;50.118;5.342;2023-04-01T01:43:42;7.40;99.90
16118;DHT22;8163;50.118;5.342;2023-04-01T01:46:13;7.40;99.90
16118;DHT22;8163;50.118;5.342;2023-04-01T01:48:43;7.30;99.90
16118;DHT22;8163;50.118;5.342;2023-04-01T01:51:12;7.40;99.90
16118;DHT22;8163;50.118;5.342;2023-04-01T01:53:51;7.30;99.90
16118;DHT22;8163;50.118;5.342;2023-04-01T01:56:22;7.40;99.90
16118;DHT22;8163;50.118;5.342;2023-04-01T01:58:54;7.40;99.90
16118;DHT22;8163;50.118;5.342;2023-04-01T02:01:24;7.30;99.90
16118;DHT22;8163;50.118;5.342;2023-04-01T02:03:53;7.40;99.90
16118;DHT22;8163;50.118;5.342;2023-04-01T02:06:26;7.40;99.90
16118;DHT22;8163;50.118;5.342;2023-04-01T02:08:57;7.30;99.90
16118;DHT22;8163;50.118;5.342;2023-04-01T02:11:27;7.30;99.90
16118;DHT22;8163;50.118;5.342;2023-04-01T02:13:58;7.40;99.90
16118;DHT22;8163;50.118;5.342;2023-04-01T02:16:31;7.30;99.90
16118;DHT22;8163;50.118;5.342;2023-04-01T02:19:01;7.30;99.90
16118;DHT22;8163;50.118;5.342;2023-04-01T02:21:35;7.30;99.90
16118;DHT22;8163;50.118;5.342;2023-04-01T02:24:07;7.40;99.90
16118;DHT22;8163;50.118;5.342;2023-04-01T02:26:36;7.30;99.90
16118;DHT22;8163;50.118;5.342;2023-04-01T02:29:06;7.40;99.90
16118;DHT22;8163;50.118;5.342;2023-04-01T02:31:34;7.40;99.90
16118;DHT22;8163;50.118;5.342;2023-04-01T02:34:03;7.30;99.90
16118;DHT22;8163;50.118;5.342;2023-04-01T02:36:34;7.30;99.90
16118;DHT22;8163;50.118;5.342;2023-04-01T02:39:02;7.30;99.90
16118;DHT22;8163;50.118;5.342;2023-04-01T02:41:30;7.30;99.90
16118;DHT22;8163;50.118;5.342;2023-04-01T02:43:58;7.30;99.90
16118;DHT22;8163;50.118;5.342;2023-04-01T02:46:26;7.30;99.90
16118;DHT22;8163;50.118;5.342;2023-04-01T02:48:59;7.30;99.90
16118;DHT22;8163;50.118;5.342;2023-04-01T02:51:26;7.30;99.90
16118;DHT22;8163;50.118;5.342;2023-04-01T02:53:55;7.30;99.90
16118;DHT22;8163;50.118;5.342;2023-04-01T02:56:21;7.30;99.90
16118;DHT22;8163;50.118;5.342;2023-04-01T02:58:48;7.30;99.90
16118;DHT22;8163;50.118;5.342;2023-04-01T03:01:16;7.30;99.90
16118;DHT22;8163;50.118;5.342;2023-04-01T03:03:43;7.30;99.90
16118;DHT22;8163;50.118;5.342;2023-04-01T03:06:12;7.30;99.90
16118;DHT22;8163;50.118;5.342;2023-04-01T03:08:39;7.40;99.90
16118;DHT22;8163;50.118;5.342;2023-04-01T03:11:10;7.30;99.90
16118;DHT22;8163;50.118;5.342;2023-04-01T03:13:37;7.30;99.90
16118;DHT22;8163;50.118;5.342;2023-04-01T03:16:06;7.30;99.90
16118;DHT22;8163;50.118;5.342;2023-04-01T03:18:33;7.30;99.90
16118;DHT22;8163;50.118;5.342;2023-04-01T03:21:13;7.30;99.90
16118;DHT22;8163;50.118;5.342;2023-04-01T03:23:40;7.30;99.90
16118;DHT22;8163;50.118;5.342;2023-04-01T03:26:09;7.30;99.90
16118;DHT22;8163;50.118;5.342;2023-04-01T03:28:39;7.30;99.90
16118;DHT22;8163;50.118;5.342;2023-04-01T03:31:06;7.30;99.90
16118;DHT22;8163;50.118;5.342;2023-04-01T03:33:33;7.30;99.90
16118;DHT22;8163;50.118;5.342;2023-04-01T03:36:00;7.30;99.90
16118;DHT22;8163;50.118;5.342;2023-04-01T03:38:29;7.30;99.90
16118;DHT22;8163;50.118;5.342;2023-04-01T03:40:56;7.30;99.90
16118;DHT22;8163;50.118;5.342;2023-04-01T03:43:25;7.40;99.90
16118;DHT22;8163;50.118;5.342;2023-04-01T03:45:52;7.30;99.90
16118;DHT22;8163;50.118;5.342;2023-04-01T03:48:23;7.30;99.90
16118;DHT22;8163;50.118;5.342;2023-04-01T03:50:53;7.30;99.90
16118;DHT22;8163;50.118;5.342;2023-04-01T03:53:20;7.40;99.90
16118;DHT22;8163;50.118;5.342;2023-04-01T03:55:49;7.40;99.90
16118;DHT22;8163;50.118;5.342;2023-04-01T03:58:17;7.40;99.90
16118;DHT22;8163;50.118;5.342;2023-04-01T04:00:49;7.40;99.90
16118;DHT22;8163;50.118;5.342;2023-04-01T04:03:16;7.40;99.90
16118;DHT22;8163;50.118;5.342;2023-04-01T04:05:47;7.40;99.90
16118;DHT22;8163;50.118;5.342;2023-04-01T04:08:14;7.40;99.90
16118;DHT22;8163;50.118;5.342;2023-04-01T04:10:41;7.40;99.90
16118;DHT22;8163;50.118;5.342;2023-04-01T04:13:08;7.40;99.90
16118;DHT22;8163;50.118;5.342;2023-04-01T04:15:35;7.40;99.90
16118;DHT22;8163;50.118;5.342;2023-04-01T04:18:08;7.50;99.90
16118;DHT22;8163;50.118;5.342;2023-04-01T04:20:35;7.40;99.90
16118;DHT22;8163;50.118;5.342;2023-04-01T04:23:02;7.40;99.90
16118;DHT22;8163;50.118;5.342;2023-04-01T04:25:29;7.50;99.90
16118;DHT22;8163;50.118;5.342;2023-04-01T04:27:56;7.50;99.90
16118;DHT22;8163;50.118;5.342;2023-04-01T04:30:26;7.50;99.90
16118;DHT22;8163;50.118;5.342;2023-04-01T04:32:53;7.40;99.90
16118;DHT22;8163;50.118;5.342;2023-04-01T04:35:21;7.50;99.90
16118;DHT22;8163;50.118;5.342;2023-04-01T04:37:49;7.50;99.90
16118;DHT22;8163;50.118;5.342;2023-04-01T04:40:16;7.50;99.90
16118;DHT22;8163;50.118;5.342;2023-04-01T04:42:43;7.50;99.90
16118;DHT22;8163;50.118;5.342;2023-04-01T04:45:11;7.50;99.90
16118;DHT22;8163;50.118;5.342;2023-04-01T04:47:38;7.50;99.90
16118;DHT22;8163;50.118;5.342;2023-04-01T04:50:07;7.50;99.90
16118;DHT22;8163;50.118;5.342;2023-04-01T04:52:36;7.50;99.90
16118;DHT22;8163;50.118;5.342;2023-04-01T04:55:03;7.50;99.90
16118;DHT22;8163;50.118;5.342;2023-04-01T04:57:31;7.50;99.90
16118;DHT22;8163;50.118;5.342;2023-04-01T04:59:58;7.50;99.90
16118;DHT22;8163;50.118;5.342;2023-04-01T05:02:26;7.50;99.90
16118;DHT22;8163;50.118;5.342;2023-04-01T05:04:56;7.50;99.90
16118;DHT22;8163;50.118;5.342;2023-04-01T05:07:23;7.50;99.90
16118;DHT22;8163;50.118;5.342;2023-04-01T05:09:51;7.50;99.90
16118;DHT22;8163;50.118;5.342;2023-04-01T05:12:18;7.50;99.90
16118;DHT22;8163;50.118;5.342;2023-04-01T05:14:45;7.50;99.90
16118;DHT22;8163;50.118;5.342;2023-04-01T05:17:12;7.50;99.90
16118;DHT22;8163;50.118;5.342;2023-04-01T05:19:40;7.50;99.90
16118;DHT22;8163;50.118;5.342;2023-04-01T05:22:07;7.50;99.90
16118;DHT22;8163;50.118;5.342;2023-04-01T05:24:34;7.60;99.90
16118;DHT22;8163;50.118;5.342;2023-04-01T05:27:02;7.50;99.90
16118;DHT22;8163;50.118;5.342;2023-04-01T05:29:29;7.50;99.90
16118;DHT22;8163;50.118;5.342;2023-04-01T05:31:56;7.50;99.90
16118;DHT22;8163;50.118;5.342;2023-04-01T05:34:23;7.50;99.90
16118;DHT22;8163;50.118;5.342;2023-04-01T05:36:50;7.50;99.90
16118;DHT22;8163;50.118;5.342;2023-04-01T05:39:17;7.50;99.90
16118;DHT22;8163;50.118;5.342;2023-04-01T05:45:09;7.50;99.90
16118;DHT22;8163;50.118;5.342;2023-04-01T05:47:36;7.50;99.90
16118;DHT22;8163;50.118;5.342;2023-04-01T05:50:03;7.50;99.90
16118;DHT22;8163;50.118;5.342;2023-04-01T05:52:33;7.60;99.90
16118;DHT22;8163;50.118;5.342;2023-04-01T05:55:09;7.60;99.90
16118;DHT22;8163;50.118;5.342;2023-04-01T05:57:36;7.60;99.90
16118;DHT22;8163;50.118;5.342;2023-04-01T06:00:04;7.60;99.90
16118;DHT22;8163;50.118;5.342;2023-04-01T06:02:33;7.60;99.90
16118;DHT22;8163;50.118;5.342;2023-04-01T06:05:18;7.60;99.90
16118;DHT22;8163;50.118;5.342;2023-04-01T06:07:46;7.60;99.90
16118;DHT22;8163;50.118;5.342;2023-04-01T06:10:15;7.70;99.90
16118;DHT22;8163;50.118;5.342;2023-04-01T06:12:54;7.60;99.90
16118;DHT22;8163;50.118;5.342;2023-04-01T06:15:35;7.70;99.90
16118;DHT22;8163;50.118;5.342;2023-04-01T06:18:43;7.70;99.90
16118;DHT22;8163;50.118;5.342;2023-04-01T06:21:36;7.70;99.90
16118;DHT22;8163;50.118;5.342;2023-04-01T06:27:10;7.70;99.90
16118;DHT22;8163;50.118;5.342;2023-04-01T06:29:52;7.70;99.90
16118;DHT22;8163;50.118;5.342;2023-04-01T06:35:38;7.70;99.90
16118;DHT22;8163;50.118;5.342;2023-04-01T06:38:21;7.80;99.90
16118;DHT22;8163;50.118;5.342;2023-04-01T06:41:01;7.80;99.90
16118;DHT22;8163;50.118;5.342;2023-04-01T06:43:38;7.80;99.90
16118;DHT22;8163;50.118;5.342;2023-04-01T06:46:18;7.80;99.90
16118;DHT22;8163;50.118;5.342;2023-04-01T06:49:02;7.80;99.90
16118;DHT22;8163;50.118;5.342;2023-04-01T06:51:43;7.80;99.90
16118;DHT22;8163;50.118;5.342;2023-04-01T06:54:16;7.80;99.90
16118;DHT22;8163;50.118;5.342;2023-04-01T06:56:48;7.90;99.90
16118;DHT22;8163;50.118;5.342;2023-04-01T06:59:20;7.90;99.90
16118;DHT22;8163;50.118;5.342;2023-04-01T07:01:50;7.90;99.90
16118;DHT22;8163;50.118;5.342;2023-04-01T07:04:21;7.90;99.90
16118;DHT22;8163;50.118;5.342;2023-04-01T07:06:57;7.90;99.90
16118;DHT22;8163;50.118;5.342;2023-04-01T07:09:30;7.90;99.90
16118;DHT22;8163;50.118;5.342;2023-04-01T07:12:10;8.00;99.90
16118;DHT22;8163;50.118;5.342;2023-04-01T07:14:41;8.00;99.90
16118;DHT22;8163;50.118;5.342;2023-04-01T07:17:14;8.00;99.90
16118;DHT22;8163;50.118;5.342;2023-04-01T07:19:45;8.00;99.90
16118;DHT22;8163;50.118;5.342;2023-04-01T07:22:21;8.00;99.90
16118;DHT22;8163;50.118;5.342;2023-04-01T07:24:54;8.00;99.90
16118;DHT22;8163;50.118;5.342;2023-04-01T07:27:23;8.00;99.90
16118;DHT22;8163;50.118;5.342;2023-04-01T07:29:56;8.10;99.90
16118;DHT22;8163;50.118;5.342;2023-04-01T07:32:34;8.00;99.90
16118;DHT22;8163;50.118;5.342;2023-04-01T07:35:16;8.10;99.90
16118;DHT22;8163;50.118;5.342;2023-04-01T07:37:57;8.10;99.90
16118;DHT22;8163;50.118;5.342;2023-04-01T07:40:32;8.10;99.90
16118;DHT22;8163;50.118;5.342;2023-04-01T07:43:14;8.10;99.90
16118;DHT22;8163;50.118;5.342;2023-04-01T07:45:51;8.10;99.90
16118;DHT22;8163;50.118;5.342;2023-04-01T07:48:25;8.20;99.90
16118;DHT22;8163;50.118;5.342;2023-04-01T07:51:00;8.20;99.90
16118;DHT22;8163;50.118;5.342;2023-04-01T07:53:38;8.10;99.90
16118;DHT22;8163;50.118;5.342;2023-04-01T07:56:10;8.10;99.90
16118;DHT22;8163;50.118;5.342;2023-04-01T07:58:47;8.10;99.90
16118;DHT22;8163;50.118;5.342;2023-04-01T08:01:24;8.20;99.90
16118;DHT22;8163;50.118;5.342;2023-04-01T08:04:16;8.10;99.90
16118;DHT22;8163;50.118;5.342;2023-04-01T08:06:49;8.20;99.90
16118;DHT22;8163;50.118;5.342;2023-04-01T08:09:26;8.20;99.90
16118;DHT22;8163;50.118;5.342;2023-04-01T08:12:04;8.20;99.90
16118;DHT22;8163;50.118;5.342;2023-04-01T08:14:36;8.30;99.90
16118;DHT22;8163;50.118;5.342;2023-04-01T08:17:12;8.40;99.90
16118;DHT22;8163;50.118;5.342;2023-04-01T08:19:56;8.50;99.90
16118;DHT22;8163;50.118;5.342;2023-04-01T08:22:28;8.50;99.90
16118;DHT22;8163;50.118;5.342;2023-04-01T08:24:59;8.60;99.90
16118;DHT22;8163;50.118;5.342;2023-04-01T08:27:34;8.60;99.90
16118;DHT22;8163;50.118;5.342;2023-04-01T08:30:04;8.60;99.90
16118;DHT22;8163;50.118;5.342;2023-04-01T08:32:35;8.70;99.90
16118;DHT22;8163;50.118;5.342;2023-04-01T08:35:08;8.70;99.90
16118;DHT22;8163;50.118;5.342;2023-04-01T08:37:38;8.80;99.90
16118;DHT22;8163;50.118;5.342;2023-04-01T08:40:28;8.80;99.90
16118;DHT22;8163;50.118;5.342;2023-04-01T08:43:09;8.80;99.90
16118;DHT22;8163;50.118;5.342;2023-04-01T08:45:48;8.90;99.90
16118;DHT22;8163;50.118;5.342;2023-04-01T08:48:39;8.80;99.90
16118;DHT22;8163;50.118;5.342;2023-04-01T08:57:24;8.90;99.90
16118;DHT22;8163;50.118;5.342;2023-04-01T09:00:05;8.90;99.90
16118;DHT22;8163;50.118;5.342;2023-04-01T09:02:56;8.90;99.90
16118;DHT22;8163;50.118;5.342;2023-04-01T09:05:38;8.90;99.90
16118;DHT22;8163;50.118;5.342;2023-04-01T09:08:21;8.90;99.90
16118;DHT22;8163;50.118;5.342;2023-04-01T09:11:17;8.90;99.90
16118;DHT22;8163;50.118;5.342;2023-04-01T09:14:31;8.90;99.90
16118;DHT22;8163;50.118;5.342;2023-04-01T09:17:21;8.90;99.90
16118;DHT22;8163;50.118;5.342;2023-04-01T09:20:17;8.90;99.90
16118;DHT22;8163;50.118;5.342;2023-04-01T09:22:57;8.90;99.90
16118;DHT22;8163;50.118;5.342;2023-04-01T09:25:38;8.90;99.90
16118;DHT22;8163;50.118;5.342;2023-04-01T09:28:12;8.90;99.90
16118;DHT22;8163;50.118;5.342;2023-04-01T09:30:54;9.00;99.90
16118;DHT22;8163;50.118;5.342;2023-04-01T09:33:59;9.10;99.90
16118;DHT22;8163;50.118;5.342;2023-04-01T09:36:43;9.10;99.90
16118;DHT22;8163;50.118;5.342;2023-04-01T09:39:26;9.00;99.90
16118;DHT22;8163;50.118;5.342;2023-04-01T09:42:07;9.00;99.90
16118;DHT22;8163;50.118;5.342;2023-04-01T09:44:44;9.00;99.90
16118;DHT22;8163;50.118;5.342;2023-04-01T09:47:28;9.00;99.90
16118;DHT22;8163;50.118;5.342;2023-04-01T09:50:21;9.10;99.90
16118;DHT22;8163;50.118;5.342;2023-04-01T09:53:04;9.10;99.90
16118;DHT22;8163;50.118;5.342;2023-04-01T10:02:15;9.20;99.90
16118;DHT22;8163;50.118;5.342;2023-04-01T10:11:21;9.20;99.90
16118;DHT22;8163;50.118;5.342;2023-04-01T10:20:16;9.60;99.90
16118;DHT22;8163;50.118;5.342;2023-04-01T10:26:11;9.60;99.90
16118;DHT22;8163;50.118;5.342;2023-04-01T10:32:09;9.30;99.90
16118;DHT22;8163;50.118;5.342;2023-04-01T10:47:11;9.80;99.90
16118;DHT22;8163;50.118;5.342;2023-04-01T10:53:08;9.80;99.90
16118;DHT22;8163;50.118;5.342;2023-04-01T10:59:30;9.60;99.90
16118;DHT22;8163;50.118;5.342;2023-04-01T11:11:59;9.30;99.90
16118;DHT22;8163;50.118;5.342;2023-04-01T11:15:01;9.30;99.90
16118;DHT22;8163;50.118;5.342;2023-04-01T11:21:09;9.80;99.90
16118;DHT22;8163;50.118;5.342;2023-04-01T11:26:43;10.30;99.90
16118;DHT22;8163;50.118;5.342;2023-04-01T11:29:35;10.10;99.90
16118;DHT22;8163;50.118;5.342;2023-04-01T11:32:17;10.00;99.90
16118;DHT22;8163;50.118;5.342;2023-04-01T11:38:02;9.90;99.90
16118;DHT22;8163;50.118;5.342;2023-04-01T11:40:37;10.30;99.90
16118;DHT22;8163;50.118;5.342;2023-04-01T11:43:12;10.80;99.90
16118;DHT22;8163;50.118;5.342;2023-04-01T11:45:48;10.90;99.90
16118;DHT22;8163;50.118;5.342;2023-04-01T11:48:48;10.90;99.90
16118;DHT22;8163;50.118;5.342;2023-04-01T11:51:43;10.70;99.90
16118;DHT22;8163;50.118;5.342;2023-04-01T11:54:25;10.50;99.90
16118;DHT22;8163;50.118;5.342;2023-04-01T11:57:04;10.30;99.90
16118;DHT22;8163;50.118;5.342;2023-04-01T11:59:54;10.20;99.90
16118;DHT22;8163;50.118;5.342;2023-04-01T12:02:28;10.10;99.90
16118;DHT22;8163;50.118;5.342;2023-04-01T12:05:24;10.00;99.90
16118;DHT22;8163;50.118;5.342;2023-04-01T12:08:15;10.00;99.90
16118;DHT22;8163;50.118;5.342;2023-04-01T12:10:53;9.90;99.90
16118;DHT22;8163;50.118;5.342;2023-04-01T12:13:31;9.80;99.90
16118;DHT22;8163;50.118;5.342;2023-04-01T12:16:23;9.80;99.90
16118;DHT22;8163;50.118;5.342;2023-04-01T12:18:54;9.80;99.90
16118;DHT22;8163;50.118;5.342;2023-04-01T12:21:31;9.70;99.90
16118;DHT22;8163;50.118;5.342;2023-04-01T12:24:25;9.70;99.90
16118;DHT22;8163;50.118;5.342;2023-04-01T12:27:06;9.70;99.90
16118;DHT22;8163;50.118;5.342;2023-04-01T12:30:02;9.60;99.90
16118;DHT22;8163;50.118;5.342;2023-04-01T12:32:40;9.60;99.90
16118;DHT22;8163;50.118;5.342;2023-04-01T12:35:17;9.70;99.90
16118;DHT22;8163;50.118;5.342;2023-04-01T12:37:52;9.80;99.90
16118;DHT22;8163;50.118;5.342;2023-04-01T12:40:38;9.80;99.90
16118;DHT22;8163;50.118;5.342;2023-04-01T12:43:20;9.90;99.90
16118;DHT22;8163;50.118;5.342;2023-04-01T12:45:59;10.00;99.90
16118;DHT22;8163;50.118;5.342;2023-04-01T12:51:43;10.10;99.90
16118;DHT22;8163;50.118;5.342;2023-04-01T12:57:21;10.00;99.90
16118;DHT22;8163;50.118;5.342;2023-04-01T13:00:10;10.00;99.90
16118;DHT22;8163;50.118;5.342;2023-04-01T13:02:48;10.10;99.90
16118;DHT22;8163;50.118;5.342;2023-04-01T13:05:52;10.30;99.90
16118;DHT22;8163;50.118;5.342;2023-04-01T13:08:36;10.60;99.90
16118;DHT22;8163;50.118;5.342;2023-04-01T13:11:18;10.70;99.90
16118;DHT22;8163;50.118;5.342;2023-04-01T13:14:10;10.90;99.90
16118;DHT22;8163;50.118;5.342;2023-04-01T13:16:40;11.00;99.90
16118;DHT22;8163;50.118;5.342;2023-04-01T13:19:13;10.90;99.90
16118;DHT22;8163;50.118;5.342;2023-04-01T13:21:51;10.90;99.90
16118;DHT22;8163;50.118;5.342;2023-04-01T13:24:40;10.90;99.90
16118;DHT22;8163;50.118;5.342;2023-04-01T13:27:16;10.70;99.90
16118;DHT22;8163;50.118;5.342;2023-04-01T13:29:47;10.60;99.90
16118;DHT22;8163;50.118;5.342;2023-04-01T13:32:27;10.40;99.90
16118;DHT22;8163;50.118;5.342;2023-04-01T13:35:10;10.30;99.90
16118;DHT22;8163;50.118;5.342;2023-04-01T13:37:50;10.20;99.90
16118;DHT22;8163;50.118;5.342;2023-04-01T13:40:42;10.10;99.90
16118;DHT22;8163;50.118;5.342;2023-04-01T13:43:16;10.10;99.90
16118;DHT22;8163;50.118;5.342;2023-04-01T13:46:05;10.30;99.90
16118;DHT22;8163;50.118;5.342;2023-04-01T13:48:47;10.60;99.90
16118;DHT22;8163;50.118;5.342;2023-04-01T13:51:47;10.80;99.90
16118;DHT22;8163;50.118;5.342;2023-04-01T13:54:46;10.80;99.90
16118;DHT22;8163;50.118;5.342;2023-04-01T13:57:40;10.80;99.90
16118;DHT22;8163;50.118;5.342;2023-04-01T14:39:15;10.20;99.90
16118;DHT22;8163;50.118;5.342;2023-04-01T14:41:48;10.20;99.90
16118;DHT22;8163;50.118;5.342;2023-04-01T14:44:51;10.10;99.90
16118;DHT22;8163;50.118;5.342;2023-04-01T14:47:48;10.00;99.90
16118;DHT22;8163;50.118;5.342;2023-04-01T14:50:19;9.90;99.90
16118;DHT22;8163;50.118;5.342;2023-04-01T14:52:59;9.90;99.90
16118;DHT22;8163;50.118;5.342;2023-04-01T14:55:33;9.90;99.90
16118;DHT22;8163;50.118;5.342;2023-04-01T14:58:11;9.80;99.90
16118;DHT22;8163;50.118;5.342;2023-04-01T15:00:48;9.80;99.90
16118;DHT22;8163;50.118;5.342;2023-04-01T15:03:22;9.70;99.90
16118;DHT22;8163;50.118;5.342;2023-04-01T15:05:55;9.70;99.90
16118;DHT22;8163;50.118;5.342;2023-04-01T15:08:26;9.80;99.90
16118;DHT22;8163;50.118;5.342;2023-04-01T15:11:24;9.80;99.90
16118;DHT22;8163;50.118;5.342;2023-04-01T15:14:15;9.80;99.90
16118;DHT22;8163;50.118;5.342;2023-04-01T15:16:53;9.80;99.90
16118;DHT22;8163;50.118;5.342;2023-04-01T15:19:31;9.80;99.90
16118;DHT22;8163;50.118;5.342;2023-04-01T15:22:26;9.80;99.90
16118;DHT22;8163;50.118;5.342;2023-04-01T15:25:05;9.80;99.90
16118;DHT22;8163;50.118;5.342;2023-04-01T15:27:44;9.80;99.90
16118;DHT22;8163;50.118;5.342;2023-04-01T15:30:25;9.70;99.90
16118;DHT22;8163;50.118;5.342;2023-04-01T15:33:16;9.70;99.90
16118;DHT22;8163;50.118;5.342;2023-04-01T15:35:49;9.60;99.90
16118;DHT22;8163;50.118;5.342;2023-04-01T15:38:28;9.60;99.90
16118;DHT22;8163;50.118;5.342;2023-04-01T15:41:07;9.60;99.90
16118;DHT22;8163;50.118;5.342;2023-04-01T15:43:41;9.60;99.90
16118;DHT22;8163;50.118;5.342;2023-04-01T15:46:24;9.60;99.90
16118;DHT22;8163;50.118;5.342;2023-04-01T15:49:03;9.60;99.90
16118;DHT22;8163;50.118;5.342;2023-04-01T15:52:02;9.60;99.90
16118;DHT22;8163;50.118;5.342;2023-04-01T15:54:52;9.50;99.90
16118;DHT22;8163;50.118;5.342;2023-04-01T15:57:28;9.50;99.90
16118;DHT22;8163;50.118;5.342;2023-04-01T16:00:08;9.40;99.90
16118;DHT22;8163;50.118;5.342;2023-04-01T16:02:44;9.50;99.90
16118;DHT22;8163;50.118;5.342;2023-04-01T16:05:26;9.40;99.90
16118;DHT22;8163;50.118;5.342;2023-04-01T16:08:12;9.50;99.90
16118;DHT22;8163;50.118;5.342;2023-04-01T16:10:58;9.40;99.90
16118;DHT22;8163;50.118;5.342;2023-04-01T16:13:46;9.40;99.90
16118;DHT22;8163;50.118;5.342;2023-04-01T16:16:23;9.40;99.90
16118;DHT22;8163;50.118;5.342;2023-04-01T16:19:06;9.40;99.90
16118;DHT22;8163;50.118;5.342;2023-04-01T16:21:43;9.30;99.90
16118;DHT22;8163;50.118;5.342;2023-04-01T16:24:19;9.40;99.90
16118;DHT22;8163;50.118;5.342;2023-04-01T16:26:53;9.30;99.90
16118;DHT22;8163;50.118;5.342;2023-04-01T16:29:28;9.30;99.90
16118;DHT22;8163;50.118;5.342;2023-04-01T16:32:14;9.30;99.90
16118;DHT22;8163;50.118;5.342;2023-04-01T16:34:46;9.20;99.90
16118;DHT22;8163;50.118;5.342;2023-04-01T16:37:17;9.20;99.90
16118;DHT22;8163;50.118;5.342;2023-04-01T16:39:52;9.20;99.90
16118;DHT22;8163;50.118;5.342;2023-04-01T16:42:28;9.20;99.90
16118;DHT22;8163;50.118;5.342;2023-04-01T16:45:06;9.20;99.90
16118;DHT22;8163;50.118;5.342;2023-04-01T16:47:47;9.20;99.90
16118;DHT22;8163;50.118;5.342;2023-04-01T16:50:20;9.10;99.90
16118;DHT22;8163;50.118;5.342;2023-04-01T16:52:56;9.10;99.90
16118;DHT22;8163;50.118;5.342;2023-04-01T16:55:34;9.10;99.90
16118;DHT22;8163;50.118;5.342;2023-04-01T16:58:02;9.10;99.90
16118;DHT22;8163;50.118;5.342;2023-04-01T17:00:37;9.10;99.90
16118;DHT22;8163;50.118;5.342;2023-04-01T17:03:11;9.10;99.90
16118;DHT22;8163;50.118;5.342;2023-04-01T17:05:52;9.10;99.90
16118;DHT22;8163;50.118;5.342;2023-04-01T17:08:31;9.00;99.90
16118;DHT22;8163;50.118;5.342;2023-04-01T17:11:07;9.00;99.90
16118;DHT22;8163;50.118;5.342;2023-04-01T17:13:42;9.00;99.90
16118;DHT22;8163;50.118;5.342;2023-04-01T17:19:28;8.90;99.90
16118;DHT22;8163;50.118;5.342;2023-04-01T17:22:05;8.90;99.90
16118;DHT22;8163;50.118;5.342;2023-04-01T17:24:52;8.80;99.90
16118;DHT22;8163;50.118;5.342;2023-04-01T17:27:30;8.80;99.90
16118;DHT22;8163;50.118;5.342;2023-04-01T17:30:17;8.80;99.90
16118;DHT22;8163;50.118;5.342;2023-04-01T17:32:59;8.80;99.90
16118;DHT22;8163;50.118;5.342;2023-04-01T17:35:35;8.80;99.90
16118;DHT22;8163;50.118;5.342;2023-04-01T17:38:13;8.70;99.90
16118;DHT22;8163;50.118;5.342;2023-04-01T17:40:53;8.70;99.90
16118;DHT22;8163;50.118;5.342;2023-04-01T17:43:31;8.70;99.90
16118;DHT22;8163;50.118;5.342;2023-04-01T17:46:08;8.70;99.90
16118;DHT22;8163;50.118;5.342;2023-04-01T17:48:44;8.70;99.90
16118;DHT22;8163;50.118;5.342;2023-04-01T17:51:19;8.70;99.90
16118;DHT22;8163;50.118;5.342;2023-04-01T17:53:55;8.60;99.90
16118;DHT22;8163;50.118;5.342;2023-04-01T17:56:36;8.60;99.90
16118;DHT22;8163;50.118;5.342;2023-04-01T17:59:16;8.60;99.90
16118;DHT22;8163;50.118;5.342;2023-04-01T18:01:51;8.60;99.90
16118;DHT22;8163;50.118;5.342;2023-04-01T18:04:43;8.60;99.90
16118;DHT22;8163;50.118;5.342;2023-04-01T18:07:30;8.60;99.90
16118;DHT22;8163;50.118;5.342;2023-04-01T18:10:12;8.60;99.90
16118;DHT22;8163;50.118;5.342;2023-04-01T18:13:06;8.50;99.90
16118;DHT22;8163;50.118;5.342;2023-04-01T18:15:40;8.50;99.90
16118;DHT22;8163;50.118;5.342;2023-04-01T18:18:26;8.50;99.90
16118;DHT22;8163;50.118;5.342;2023-04-01T18:21:04;8.40;99.90
16118;DHT22;8163;50.118;5.342;2023-04-01T18:23:40;8.40;99.90
16118;DHT22;8163;50.118;5.342;2023-04-01T18:26:10;8.40;99.90
16118;DHT22;8163;50.118;5.342;2023-04-01T18:28:42;8.40;99.90
16118;DHT22;8163;50.118;5.342;2023-04-01T18:31:15;8.40;99.90
16118;DHT22;8163;50.118;5.342;2023-04-01T18:33:52;8.40;99.90
16118;DHT22;8163;50.118;5.342;2023-04-01T18:36:26;8.40;99.90
16118;DHT22;8163;50.118;5.342;2023-04-01T18:39:04;8.40;99.90
16118;DHT22;8163;50.118;5.342;2023-04-01T18:41:38;8.40;99.90
16118;DHT22;8163;50.118;5.342;2023-04-01T18:44:25;8.40;99.90
16118;DHT22;8163;50.118;5.342;2023-04-01T18:47:00;8.40;99.90
16118;DHT22;8163;50.118;5.342;2023-04-01T18:49:39;8.40;99.90
16118;DHT22;8163;50.118;5.342;2023-04-01T18:52:13;8.30;99.90
16118;DHT22;8163;50.118;5.342;2023-04-01T18:54:46;8.30;99.90
16118;DHT22;8163;50.118;5.342;2023-04-01T18:57:15;8.20;99.90
16118;DHT22;8163;50.118;5.342;2023-04-01T18:59:45;8.30;99.90
16118;DHT22;8163;50.118;5.342;2023-04-01T19:02:25;8.30;99.90
16118;DHT22;8163;50.118;5.342;2023-04-01T19:05:02;8.20;99.90
16118;DHT22;8163;50.118;5.342;2023-04-01T19:07:42;8.20;99.90